createdAt,value
2023-02-14T00:00:05.933Z,14.93
2023-02-14T00:02:32.629Z,15.63
2023-02-14T00:04:59.463Z,15.33
2023-02-14T00:07:26.265Z,15.83
2023-02-14T00:09:52.994Z,16.30
2023-02-14T00:12:19.712Z,16.93
2023-02-14T00:15:04.787Z,15.73
2023-02-14T00:17:31.657Z,15.90
2023-02-14T00:19:58.404Z,16.60
2023-02-14T00:22:25.534Z,17.07
2023-02-14T00:24:52.273Z,16.40
2023-02-14T00:27:19.052Z,16.47
2023-02-14T00:29:45.922Z,16.13
2023-02-14T00:32:12.731Z,14.73
2023-02-14T00:34:40.514Z,15.10
2023-02-14T00:37:07.201Z,14.97
2023-02-14T00:39:33.890Z,13.47
2023-02-14T00:42:00.645Z,14.37
2023-02-14T00:44:27.791Z,13.70
2023-02-14T00:46:54.464Z,14.23
2023-02-14T00:49:21.128Z,15.40
2023-02-14T00:51:47.849Z,14.10
2023-02-14T00:54:14.580Z,14.60
2023-02-14T00:56:41.444Z,12.17
2023-02-14T00:59:08.195Z,12.77
2023-02-14T01:01:34.899Z,12.97
2023-02-14T01:04:01.670Z,12.73
2023-02-14T01:06:28.497Z,12.20
2023-02-14T01:08:55.235Z,10.97
2023-02-14T01:11:24.303Z,10.27
2023-02-14T01:13:52.038Z,9.90
2023-02-14T01:16:21.672Z,9.33
2023-02-14T01:18:48.882Z,9.33
2023-02-14T01:21:15.705Z,11.30
2023-02-14T01:23:43.214Z,11.47
2023-02-14T01:26:10.699Z,9.63
2023-02-14T01:28:37.509Z,9.47
2023-02-14T01:31:22.193Z,10.20
2023-02-14T01:33:50.334Z,11.47
2023-02-14T01:36:20.236Z,10.47
2023-02-14T01:38:47.651Z,11.07
2023-02-14T01:41:14.639Z,10.50
2023-02-14T01:44:01.414Z,10.60
2023-02-14T01:46:34.323Z,10.63
2023-02-14T01:49:41.331Z,11.17
2023-02-14T01:52:19.776Z,10.97
2023-02-14T01:54:54.402Z,10.70
2023-02-14T01:57:24.476Z,11.07
2023-02-14T01:59:56.613Z,12.40
2023-02-14T02:02:26.140Z,11.87
2023-02-14T02:04:56.625Z,12.70
2023-02-14T02:07:26.260Z,14.53
2023-02-14T02:10:01.288Z,14.63
2023-02-14T02:12:30.888Z,15.57
2023-02-14T02:14:59.880Z,15.03
2023-02-14T02:17:47.671Z,16.77
2023-02-14T02:20:17.426Z,13.90
2023-02-14T02:23:21.228Z,13.23
2023-02-14T02:25:59.955Z,14.53
2023-02-14T02:29:00.789Z,14.10
2023-02-14T02:31:51.850Z,15.63
2023-02-14T02:34:21.576Z,15.43
2023-02-14T02:36:57.194Z,16.50
2023-02-14T02:39:36.446Z,17.63
2023-02-14T02:42:24.069Z,17.93
2023-02-14T02:45:08.886Z,18.30
2023-02-14T02:47:53.981Z,16.60
2023-02-14T02:50:42.568Z,17.33
2023-02-14T02:53:33.861Z,17.47
2023-02-14T02:56:41.029Z,16.20
2023-02-14T02:59:20.645Z,16.30
2023-02-14T03:02:04.079Z,16.77
2023-02-14T03:04:53.534Z,16.57
2023-02-14T03:07:40.527Z,21.20
2023-02-14T03:10:11.529Z,19.60
2023-02-14T03:13:06.213Z,20.27
2023-02-14T03:15:45.801Z,23.60
2023-02-14T03:18:49.740Z,24.40
2023-02-14T03:21:43.945Z,27.60
2023-02-14T03:24:35.092Z,25.23
2023-02-14T03:27:15.536Z,23.50
2023-02-14T03:29:54.387Z,21.47
2023-02-14T03:32:46.041Z,23.87
2023-02-14T03:35:21.872Z,23.80
2023-02-14T03:38:00.398Z,26.27
2023-02-14T03:40:32.242Z,20.93
2023-02-14T03:43:04.057Z,22.13
2023-02-14T03:45:35.969Z,24.23
2023-02-14T03:48:08.684Z,18.97
2023-02-14T03:50:38.253Z,18.07
2023-02-14T03:53:09.200Z,20.37
2023-02-14T03:55:48.404Z,19.43
2023-02-14T03:58:24.686Z,25.33
2023-02-14T04:00:56.339Z,21.43
2023-02-14T04:03:25.502Z,18.97
2023-02-14T04:05:52.657Z,19.17
2023-02-14T04:08:29.269Z,18.30
2023-02-14T04:11:00.151Z,18.87
2023-02-14T04:13:27.873Z,16.80
2023-02-14T04:15:54.839Z,18.67
2023-02-14T04:18:40.420Z,18.80
2023-02-14T04:21:07.148Z,15.03
2023-02-14T04:23:33.845Z,20.77
2023-02-14T04:26:00.744Z,14.63
2023-02-14T04:28:27.557Z,18.60
2023-02-14T04:30:54.294Z,18.13
2023-02-14T04:33:21.005Z,17.70
2023-02-14T04:35:49.148Z,17.30
2023-02-14T04:38:15.808Z,15.67
2023-02-14T04:40:42.512Z,18.10
2023-02-14T04:43:09.198Z,17.87
2023-02-14T04:45:35.945Z,17.07
2023-02-14T04:48:02.735Z,16.33
2023-02-14T04:50:29.501Z,17.33
2023-02-14T04:52:56.211Z,16.97
2023-02-14T04:55:22.933Z,16.47
2023-02-14T04:57:49.725Z,17.57
2023-02-14T05:00:16.851Z,16.70
2023-02-14T05:02:43.523Z,17.57
2023-02-14T05:05:10.463Z,17.43
2023-02-14T05:07:37.171Z,15.57
2023-02-14T05:10:07.199Z,15.80
2023-02-14T05:12:33.990Z,17.70
2023-02-14T05:15:00.768Z,16.77
2023-02-14T05:17:27.513Z,15.13
2023-02-14T05:19:54.162Z,15.77
2023-02-14T05:22:20.959Z,15.13
2023-02-14T05:24:47.694Z,16.93
2023-02-14T05:27:14.678Z,16.53
2023-02-14T05:29:41.359Z,14.93
2023-02-14T05:32:08.723Z,15.93
2023-02-14T05:34:35.480Z,16.80
2023-02-14T05:37:03.369Z,16.97
2023-02-14T05:39:30.211Z,17.13
2023-02-14T05:41:59.077Z,16.40
2023-02-14T05:44:26.239Z,16.40
2023-02-14T05:46:52.891Z,17.03
2023-02-14T05:49:19.577Z,16.57
2023-02-14T05:51:46.292Z,16.67
2023-02-14T05:54:13.068Z,15.97
2023-02-14T05:56:39.795Z,16.30
2023-02-14T05:59:06.596Z,16.47
2023-02-14T06:01:33.338Z,16.13
2023-02-14T06:04:00.060Z,16.53
2023-02-14T06:06:26.877Z,16.50
2023-02-14T06:08:53.624Z,16.03
2023-02-14T06:11:20.379Z,17.83
2023-02-14T06:13:47.077Z,17.70
2023-02-14T06:16:13.825Z,18.57
2023-02-14T06:18:40.634Z,18.40
2023-02-14T06:21:07.287Z,17.80
2023-02-14T06:23:33.984Z,18.03
2023-02-14T06:26:00.728Z,19.00
2023-02-14T06:28:27.528Z,19.07
2023-02-14T06:30:54.419Z,19.37
2023-02-14T06:33:21.200Z,19.87
2023-02-14T06:35:47.873Z,19.80
2023-02-14T06:38:14.741Z,19.03
2023-02-14T06:40:41.412Z,19.43
2023-02-14T06:43:08.105Z,19.50
2023-02-14T06:45:34.807Z,19.13
2023-02-14T06:48:01.534Z,20.27
2023-02-14T06:50:28.337Z,19.47
2023-02-14T06:52:55.140Z,19.10
2023-02-14T06:55:21.897Z,19.63
2023-02-14T06:57:48.624Z,19.70
2023-02-14T07:00:15.615Z,19.07
2023-02-14T07:02:42.444Z,17.33
2023-02-14T07:05:09.325Z,17.03
2023-02-14T07:07:36.101Z,16.77
2023-02-14T07:10:03.151Z,18.33
2023-02-14T07:12:29.968Z,19.57
2023-02-14T07:14:56.878Z,19.53
2023-02-14T07:17:23.804Z,19.57
2023-02-14T07:19:50.427Z,19.93
2023-02-14T07:22:17.088Z,21.47
2023-02-14T07:24:43.772Z,19.17
2023-02-14T07:27:10.830Z,16.73
2023-02-14T07:29:37.774Z,19.37
2023-02-14T07:32:05.535Z,19.07
2023-02-14T07:34:33.407Z,18.93
2023-02-14T07:37:01.661Z,18.80
2023-02-14T07:39:28.719Z,21.80
2023-02-14T07:41:55.616Z,20.77
2023-02-14T07:44:22.410Z,19.10
2023-02-14T07:46:49.355Z,18.50
2023-02-14T07:49:16.193Z,19.07
2023-02-14T07:51:43.307Z,20.77
2023-02-14T07:54:10.135Z,20.80
2023-02-14T07:56:36.931Z,20.57
2023-02-14T07:59:03.632Z,21.23
2023-02-14T08:01:30.433Z,22.90
2023-02-14T08:03:57.200Z,22.10
2023-02-14T08:06:26.064Z,23.97
2023-02-14T08:08:52.972Z,25.43
2023-02-14T08:11:38.380Z,26.97
2023-02-14T08:14:05.647Z,26.87
2023-02-14T08:16:35.330Z,24.67
2023-02-14T08:19:02.878Z,22.87
2023-02-14T08:21:30.608Z,22.90
2023-02-14T08:23:57.806Z,22.97
2023-02-14T08:26:24.816Z,22.23
2023-02-14T08:28:51.825Z,23.37
2023-02-14T08:31:35.114Z,23.40
2023-02-14T08:34:02.792Z,21.50
2023-02-14T08:36:29.525Z,20.27
2023-02-14T08:38:57.762Z,21.23
2023-02-14T08:41:24.587Z,21.63
2023-02-14T08:43:51.283Z,21.37
2023-02-14T08:46:18.199Z,21.97
2023-02-14T08:48:45.068Z,21.37
2023-02-14T08:51:14.385Z,22.83
2023-02-14T08:53:41.878Z,22.83
2023-02-14T08:56:10.941Z,22.17
2023-02-14T08:58:38.806Z,21.57
2023-02-14T09:01:17.032Z,22.80
2023-02-14T09:03:44.589Z,21.33
2023-02-14T09:06:14.640Z,21.30
2023-02-14T09:08:41.551Z,22.50
2023-02-14T09:11:10.677Z,20.83
2023-02-14T09:13:37.895Z,22.43
2023-02-14T09:16:07.277Z,22.43
2023-02-14T09:18:34.485Z,19.87
2023-02-14T09:21:01.939Z,20.73
2023-02-14T09:23:28.845Z,20.30
2023-02-14T09:26:03.680Z,20.30
2023-02-14T09:28:31.167Z,19.73
2023-02-14T09:30:59.158Z,19.00
2023-02-14T09:33:29.283Z,19.67
2023-02-14T09:36:16.511Z,19.13
2023-02-14T09:38:43.263Z,17.77
2023-02-14T09:41:30.540Z,17.73
2023-02-14T09:44:13.516Z,17.37
2023-02-14T09:46:49.256Z,17.00
2023-02-14T09:49:19.374Z,17.07
2023-02-14T09:51:52.228Z,16.30
2023-02-14T09:54:27.689Z,15.33
2023-02-14T09:57:15.673Z,14.97
2023-02-14T10:00:03.054Z,15.80
2023-02-14T10:02:51.615Z,14.53
2023-02-14T10:05:45.388Z,14.20
2023-02-14T10:08:46.715Z,13.77
2023-02-14T10:11:20.413Z,12.37
2023-02-14T10:14:01.737Z,12.27
2023-02-14T10:16:33.648Z,11.80
2023-02-14T10:19:19.808Z,12.00
2023-02-14T10:21:55.201Z,11.97
2023-02-14T10:24:33.988Z,11.77
2023-02-14T10:27:14.444Z,11.23
2023-02-14T10:29:42.005Z,10.37
2023-02-14T10:32:15.110Z,11.57
2023-02-14T10:34:51.663Z,10.57
2023-02-14T10:37:23.344Z,10.50
2023-02-14T10:40:02.139Z,11.40
2023-02-14T10:42:31.870Z,10.87
2023-02-14T10:45:15.649Z,10.10
2023-02-14T10:48:23.881Z,10.43
2023-02-14T10:51:12.629Z,9.63
2023-02-14T10:53:57.937Z,9.43
2023-02-14T10:56:34.324Z,10.17
2023-02-14T10:59:15.178Z,10.07
2023-02-14T11:01:42.723Z,9.23
2023-02-14T11:04:12.816Z,10.03
2023-02-14T11:06:39.814Z,9.57
2023-02-14T11:09:06.529Z,9.73
2023-02-14T11:11:40.944Z,10.13
2023-02-14T11:16:54.544Z,9.77
2023-02-14T11:19:31.027Z,9.87
2023-02-14T11:22:00.039Z,10.17
2023-02-14T11:24:28.642Z,9.03
2023-02-14T11:27:09.928Z,8.33
2023-02-14T11:29:43.573Z,9.23
2023-02-14T11:32:15.550Z,8.40
2023-02-14T11:34:46.156Z,9.33
2023-02-14T11:37:22.086Z,9.80
2023-02-14T11:39:50.738Z,9.70
2023-02-14T11:42:40.548Z,9.70
2023-02-14T11:45:25.604Z,9.00
2023-02-14T11:48:19.686Z,9.27
2023-02-14T11:51:16.408Z,8.80
2023-02-14T11:53:50.792Z,8.67
2023-02-14T11:56:20.340Z,9.03
2023-02-14T11:58:53.087Z,9.03
2023-02-14T12:01:28.113Z,9.53
2023-02-14T12:03:59.735Z,10.50
2023-02-14T12:06:30.301Z,9.43
2023-02-14T12:09:24.814Z,9.80
2023-02-14T12:12:00.330Z,9.63
2023-02-14T12:14:35.496Z,9.50
2023-02-14T12:17:11.442Z,8.90
2023-02-14T12:19:54.704Z,9.33
2023-02-14T12:22:29.916Z,9.83
2023-02-14T12:25:17.447Z,10.37
2023-02-14T12:27:58.828Z,11.10
2023-02-14T12:30:34.402Z,10.33
2023-02-14T12:33:01.776Z,9.97
2023-02-14T12:35:40.635Z,9.93
2023-02-14T12:38:34.878Z,9.93
2023-02-14T12:41:24.693Z,10.77
2023-02-14T12:43:57.732Z,10.77
2023-02-14T12:46:54.072Z,9.00
2023-02-14T12:49:57.942Z,9.07
2023-02-14T12:52:51.979Z,9.63
2023-02-14T12:55:28.650Z,8.90
2023-02-14T12:58:11.005Z,8.80
2023-02-14T13:01:04.135Z,9.27
2023-02-14T13:03:33.744Z,8.93
2023-02-14T13:06:06.179Z,8.77
2023-02-14T13:09:01.782Z,9.10
2023-02-14T13:11:32.426Z,9.17
2023-02-14T13:14:21.177Z,8.53
2023-02-14T13:17:06.014Z,8.67
2023-02-14T13:19:54.704Z,8.00
2023-02-14T13:22:25.937Z,7.63
2023-02-14T13:25:21.761Z,8.23
2023-02-14T13:27:49.595Z,7.50
2023-02-14T13:30:24.414Z,7.70
2023-02-14T13:32:54.722Z,6.80
2023-02-14T13:35:23.770Z,6.30
2023-02-14T13:37:56.182Z,6.73
2023-02-14T13:40:26.017Z,6.43
2023-02-14T13:42:58.785Z,6.40
2023-02-14T13:45:37.954Z,6.87
2023-02-14T13:48:13.365Z,7.00
2023-02-14T13:50:53.757Z,6.60
2023-02-14T13:53:35.612Z,7.73
2023-02-14T13:56:17.526Z,7.13
2023-02-14T13:59:00.091Z,7.67
2023-02-14T14:01:32.823Z,7.90
2023-02-14T14:04:02.446Z,7.30
2023-02-14T14:06:29.883Z,7.87
2023-02-14T14:08:57.132Z,7.43
2023-02-14T14:11:23.905Z,7.80
2023-02-14T14:13:50.529Z,7.73
2023-02-14T14:16:29.824Z,8.13
2023-02-14T14:19:15.331Z,7.90
2023-02-14T14:21:44.684Z,8.73
2023-02-14T14:24:29.164Z,8.63
2023-02-14T14:27:23.329Z,9.13
2023-02-14T14:29:54.357Z,9.23
2023-02-14T14:32:31.336Z,8.33
2023-02-14T14:35:06.043Z,7.97
2023-02-14T14:37:35.489Z,7.47
2023-02-14T14:40:07.048Z,7.37
2023-02-14T14:42:40.052Z,7.73
2023-02-14T14:45:24.340Z,8.00
2023-02-14T14:47:54.403Z,7.70
2023-02-14T14:50:31.963Z,8.30
2023-02-14T14:53:18.868Z,8.00
2023-02-14T14:55:52.114Z,8.20
2023-02-14T14:58:51.580Z,8.83
2023-02-14T15:01:37.174Z,8.97
2023-02-14T15:04:17.030Z,8.33
2023-02-14T15:06:44.388Z,7.67
2023-02-14T15:09:17.127Z,7.80
2023-02-14T15:12:04.647Z,7.27
2023-02-14T15:14:35.946Z,7.93
2023-02-14T15:17:32.094Z,7.33
2023-02-14T15:20:06.736Z,8.43
2023-02-14T15:22:42.070Z,7.70
2023-02-14T15:25:18.560Z,8.40
2023-02-14T15:27:45.860Z,7.50
2023-02-14T15:30:30.927Z,7.57
2023-02-14T15:32:58.445Z,8.63
2023-02-14T15:35:32.114Z,7.63
2023-02-14T15:38:03.495Z,7.87
2023-02-14T15:40:33.123Z,8.07
2023-02-14T15:43:27.833Z,6.80
2023-02-14T15:46:13.394Z,6.70
2023-02-14T15:48:41.858Z,6.50
2023-02-14T15:51:17.547Z,7.30
2023-02-14T15:53:58.331Z,7.07
2023-02-14T15:56:32.030Z,6.77
2023-02-14T15:59:00.500Z,6.73
2023-02-14T16:01:28.053Z,6.37
2023-02-14T16:03:59.804Z,6.40
2023-02-14T16:06:40.144Z,6.17
2023-02-14T16:09:24.600Z,6.07
2023-02-14T16:11:51.385Z,6.47
2023-02-14T16:14:32.909Z,6.70
2023-02-14T16:17:05.369Z,5.97
2023-02-14T16:19:38.340Z,6.23
2023-02-14T16:22:07.128Z,6.40
2023-02-14T16:24:34.500Z,6.10
2023-02-14T16:27:06.994Z,6.63
2023-02-14T16:29:36.261Z,6.90
2023-02-14T16:32:17.426Z,6.40
2023-02-14T16:34:47.370Z,6.77
2023-02-14T16:37:23.641Z,7.97
2023-02-14T16:39:52.994Z,7.10
2023-02-14T16:42:20.159Z,7.70
2023-02-14T16:44:48.105Z,7.47
2023-02-14T16:47:17.344Z,7.43
2023-02-14T16:49:44.520Z,7.67
2023-02-14T16:52:23.544Z,8.40
2023-02-14T16:54:50.792Z,7.93
2023-02-14T16:57:28.013Z,8.30
2023-02-14T16:59:56.484Z,6.90
2023-02-14T17:02:26.402Z,8.30
2023-02-14T17:04:53.185Z,6.93
2023-02-14T17:07:20.979Z,7.87
2023-02-14T17:09:53.209Z,7.80
2023-02-14T17:12:24.148Z,6.90
2023-02-14T17:14:56.263Z,7.13
2023-02-14T17:17:22.980Z,7.73
2023-02-14T17:19:52.666Z,7.57
2023-02-14T17:22:20.004Z,7.23
2023-02-14T17:24:46.764Z,7.57
2023-02-14T17:27:13.439Z,7.80
2023-02-14T17:29:40.195Z,7.70
2023-02-14T17:32:07.055Z,8.43
2023-02-14T17:34:34.355Z,7.47
2023-02-14T17:37:01.193Z,8.40
2023-02-14T17:39:27.973Z,8.10
2023-02-14T17:41:56.702Z,8.37
2023-02-14T17:44:26.455Z,8.00
2023-02-14T17:46:54.824Z,8.13
2023-02-14T17:49:21.502Z,9.27
2023-02-14T17:51:48.244Z,8.10
2023-02-14T17:54:15.160Z,8.83
2023-02-14T17:56:42.085Z,8.50
2023-02-14T17:59:09.893Z,10.20
2023-02-14T18:01:36.596Z,8.80
2023-02-14T18:04:05.687Z,9.90
2023-02-14T18:06:32.858Z,8.77
2023-02-14T18:09:00.324Z,11.27
2023-02-14T18:11:28.239Z,12.13
2023-02-14T18:13:56.323Z,11.00
2023-02-14T18:16:24.892Z,11.23
2023-02-14T18:18:52.366Z,11.70
2023-02-14T18:21:21.120Z,11.93
2023-02-14T18:23:48.721Z,12.80
2023-02-14T18:26:17.079Z,13.53
2023-02-14T18:28:43.823Z,13.03
2023-02-14T18:31:16.593Z,12.63
2023-02-14T18:33:44.517Z,10.80
2023-02-14T18:36:13.671Z,12.17
2023-02-14T18:38:42.332Z,12.03
2023-02-14T18:41:11.456Z,12.03
2023-02-14T18:43:41.056Z,12.80
2023-02-14T18:46:10.536Z,11.73
2023-02-14T18:48:37.963Z,12.10
2023-02-14T18:51:09.909Z,11.40
2023-02-14T18:53:40.507Z,11.67
2023-02-14T18:56:13.518Z,11.90
2023-02-14T18:58:42.645Z,11.50
2023-02-14T19:01:16.943Z,12.17
2023-02-14T19:03:44.982Z,12.60
2023-02-14T19:06:13.048Z,12.00
2023-02-14T19:08:40.690Z,13.17
2023-02-14T19:11:19.468Z,12.20
2023-02-14T19:13:55.118Z,14.33
2023-02-14T19:16:33.787Z,12.80
2023-02-14T19:19:02.948Z,13.53
2023-02-14T19:21:33.682Z,12.17
2023-02-14T19:24:02.680Z,12.33
2023-02-14T19:26:37.318Z,13.50
2023-02-14T19:29:06.957Z,14.07
2023-02-14T19:31:40.320Z,12.87
2023-02-14T19:34:08.504Z,11.87
2023-02-14T19:36:39.299Z,14.77
2023-02-14T19:39:06.267Z,13.47
2023-02-14T19:41:37.043Z,13.37
2023-02-14T19:44:05.730Z,14.63
2023-02-14T19:46:33.248Z,13.63
2023-02-14T19:49:01.079Z,14.13
2023-02-14T19:51:31.051Z,13.83
2023-02-14T19:53:59.266Z,13.87
2023-02-14T19:56:28.892Z,13.10
2023-02-14T19:58:59.084Z,14.37
2023-02-14T20:01:33.663Z,12.67
2023-02-14T20:04:00.745Z,13.30
2023-02-14T20:06:29.299Z,13.87
2023-02-14T20:08:56.652Z,13.53
2023-02-14T20:11:30.774Z,12.53
2023-02-14T20:13:58.532Z,14.13
2023-02-14T20:16:27.012Z,13.47
2023-02-14T20:18:54.158Z,14.60
2023-02-14T20:21:24.674Z,13.97
2023-02-14T20:23:52.349Z,13.80
2023-02-14T20:26:19.732Z,13.30
2023-02-14T20:28:48.975Z,14.03
2023-02-14T20:31:19.122Z,13.13
2023-02-14T20:33:47.383Z,13.13
2023-02-14T20:36:14.416Z,13.60
2023-02-14T20:38:41.522Z,13.13
2023-02-14T20:41:10.918Z,15.10
2023-02-14T20:43:38.904Z,14.50
2023-02-14T20:46:07.022Z,14.83
2023-02-14T20:48:35.101Z,16.00
2023-02-14T20:51:12.670Z,16.43
2023-02-14T20:53:40.432Z,16.33
2023-02-14T20:56:07.892Z,15.13
2023-02-14T20:58:36.742Z,15.83
2023-02-14T21:01:09.169Z,16.30
2023-02-14T21:03:37.256Z,14.57
2023-02-14T21:06:05.680Z,15.27
2023-02-14T21:08:33.721Z,15.07
2023-02-14T21:11:00.857Z,16.50
2023-02-14T21:13:27.743Z,16.23
2023-02-14T21:15:54.734Z,14.77
2023-02-14T21:18:21.893Z,14.73
2023-02-14T21:20:48.621Z,15.10
2023-02-14T21:23:15.349Z,14.70
2023-02-14T21:25:42.235Z,16.27
2023-02-14T21:28:08.990Z,15.20
2023-02-14T21:30:35.712Z,16.63
2023-02-14T21:33:02.409Z,15.53
2023-02-14T21:35:29.272Z,16.97
2023-02-14T21:37:55.944Z,16.63
2023-02-14T21:40:23.746Z,16.83
2023-02-14T21:42:51.400Z,16.50
2023-02-14T21:45:36.556Z,15.93
2023-02-14T21:48:21.668Z,16.37
2023-02-14T21:50:48.465Z,15.20
2023-02-14T21:53:15.190Z,16.57
2023-02-14T21:55:42.877Z,16.83
2023-02-14T21:58:09.538Z,16.83
2023-02-14T22:00:36.277Z,15.93
2023-02-14T22:03:03.076Z,17.03
2023-02-14T22:05:29.764Z,17.50
2023-02-14T22:07:56.596Z,16.17
2023-02-14T22:10:23.305Z,15.60
2023-02-14T22:12:50.082Z,15.40
2023-02-14T22:15:16.828Z,15.03
2023-02-14T22:17:43.607Z,15.73
2023-02-14T22:20:10.691Z,15.07
2023-02-14T22:22:37.441Z,15.33
2023-02-14T22:25:04.303Z,16.80
2023-02-14T22:27:31.046Z,15.27
2023-02-14T22:29:57.754Z,16.60
2023-02-14T22:32:24.659Z,16.50
2023-02-14T22:34:51.387Z,17.53
2023-02-14T22:37:18.109Z,16.03
2023-02-14T22:39:44.796Z,16.33
2023-02-14T22:42:11.502Z,15.47
2023-02-14T22:44:38.434Z,18.63
2023-02-14T22:47:05.107Z,18.60
2023-02-14T22:49:31.800Z,18.73
2023-02-14T22:51:58.549Z,18.00
2023-02-14T22:54:25.197Z,17.33
2023-02-14T22:56:52.120Z,17.40
2023-02-14T22:59:21.810Z,15.67
2023-02-14T23:01:49.763Z,16.43
2023-02-14T23:04:18.292Z,13.33
2023-02-14T23:06:45.359Z,14.77
2023-02-14T23:09:13.142Z,15.00
2023-02-14T23:11:41.373Z,15.90
2023-02-14T23:14:27.787Z,15.97
2023-02-14T23:17:12.914Z,15.97
2023-02-14T23:19:58.035Z,16.40
2023-02-14T23:22:32.601Z,16.93
2023-02-14T23:25:01.560Z,17.77
2023-02-14T23:27:37.978Z,17.20
2023-02-14T23:30:06.622Z,17.27
2023-02-14T23:32:33.363Z,17.33
2023-02-14T23:35:00.590Z,18.33
2023-02-14T23:37:27.720Z,17.57
2023-02-14T23:39:54.453Z,18.50
2023-02-14T23:42:21.178Z,17.30
2023-02-14T23:44:49.138Z,17.80
2023-02-14T23:47:16.279Z,17.63
2023-02-14T23:49:43.840Z,17.50
2023-02-14T23:52:12.710Z,17.47
2023-02-14T23:54:40.263Z,16.50
2023-02-14T23:57:07.794Z,16.60
2023-02-14T23:59:34.496Z,16.43
